Time;durP1;ratioP1;P1;durP2;ratioP2;P2;SDS_P1;SDS_P2;PMS_P1;PMS_P2;Temp;Humidity;BMP_temperature;BMP_pressure;BME280_temperature;BME280_humidity;BME280_pressure;Samples;Min_cycle;Max_cycle;Signal;HPM_P1;HPM_P2
2022/07/24 00:01:02;;;;;;;16.17;13.38;;;;;;;24.37;55.98;100206.41;4980619;28;20050;-83
2022/07/24 00:03:29;;;;;;;17.13;13.65;;;;;;;24.37;55.79;100206.41;4998667;28;20042;-83
2022/07/24 00:05:56;;;;;;;17.25;12.82;;;;;;;24.34;55.52;100203.31;4985574;28;20498;-83
2022/07/24 00:08:22;;;;;;;18.67;13.43;;;;;;;24.36;55.78;100206.63;4992359;28;20121;-83
2022/07/24 00:10:49;;;;;;;15.40;12.38;;;;;;;24.31;55.69;100207.28;4963341;28;20489;-83
2022/07/24 00:13:16;;;;;;;16.48;12.95;;;;;;;24.29;55.62;100212.09;4949104;28;20759;-83
2022/07/24 00:15:43;;;;;;;18.50;12.57;;;;;;;24.26;55.10;100204.38;4967169;28;20046;-83
2022/07/24 00:18:11;;;;;;;16.25;12.90;;;;;;;24.27;55.57;100204.19;4945074;28;20055;-84
2022/07/24 00:20:38;;;;;;;16.25;13.05;;;;;;;24.21;55.72;100209.63;4961285;28;20051;-83
2022/07/24 00:23:04;;;;;;;16.13;13.43;;;;;;;24.20;55.73;100203.38;4953679;28;20042;-83
2022/07/24 00:25:31;;;;;;;15.48;13.45;;;;;;;24.18;55.86;100205.47;5015065;28;20058;-83
2022/07/24 00:27:58;;;;;;;16.42;13.20;;;;;;;24.15;56.19;100199.66;4996617;28;20039;-83
2022/07/24 00:30:25;;;;;;;14.25;12.73;;;;;;;24.15;55.83;100213.22;4996293;28;20100;-83
2022/07/24 00:32:52;;;;;;;17.23;13.00;;;;;;;24.14;56.07;100197.97;4978276;28;20062;-83
2022/07/24 00:35:18;;;;;;;16.48;13.68;;;;;;;24.10;55.65;100205.72;4965900;28;20038;-82
2022/07/24 00:37:48;;;;;;;15.20;12.68;;;;;;;24.09;55.85;100203.22;4964620;28;20134;-83
2022/07/24 00:40:20;;;;;;;17.05;13.40;;;;;;;24.03;56.04;100200.31;4999217;28;20046;-83
2022/07/24 00:42:47;;;;;;;13.47;11.77;;;;;;;24.02;56.33;100203.25;4986142;28;20068;-83
2022/07/24 00:45:13;;;;;;;17.35;13.00;;;;;;;24.06;56.06;100201.75;4971442;28;20050;-84
2022/07/24 00:47:52;;;;;;;17.02;13.15;;;;;;;24.00;55.96;100197.22;4968831;28;20046;-82
2022/07/24 00:50:23;;;;;;;16.77;13.60;;;;;;;24.01;56.04;100196.16;5015936;28;20042;-83
2022/07/24 00:52:51;;;;;;;16.13;12.90;;;;;;;23.94;55.85;100198.06;4986857;28;20038;-83
2022/07/24 00:55:18;;;;;;;14.55;12.30;;;;;;;23.95;55.84;100197.84;4976158;28;20046;-83
2022/07/24 00:57:48;;;;;;;17.27;13.23;;;;;;;23.94;55.54;100200.75;4984104;28;20046;-83
2022/07/24 01:00:16;;;;;;;16.92;13.32;;;;;;;23.93;55.21;100197.22;4982702;28;20052;-83
2022/07/24 01:02:42;;;;;;;16.40;12.48;;;;;;;23.96;55.39;100195.97;5019516;28;20478;-82
2022/07/24 01:05:09;;;;;;;15.95;12.75;;;;;;;23.89;56.15;100195.16;5001557;28;20632;-83
2022/07/24 01:07:37;;;;;;;21.08;13.27;;;;;;;23.78;56.34;100199.34;5015097;28;20113;-83
2022/07/24 01:10:08;;;;;;;13.40;11.70;;;;;;;23.66;56.79;100201.88;4970010;28;20069;-83
2022/07/24 01:12:37;;;;;;;19.60;13.57;;;;;;;23.75;56.51;100197.91;5002557;28;20070;-83
2022/07/24 01:15:05;;;;;;;13.40;11.82;;;;;;;23.68;56.69;100201.66;4980696;28;20042;-83
2022/07/24 01:17:35;;;;;;;15.15;12.43;;;;;;;23.69;56.50;100201.44;4938531;28;20412;-83
2022/07/24 01:20:04;;;;;;;15.02;12.75;;;;;;;23.66;56.58;100203.75;5000048;28;20124;-83
2022/07/24 01:22:30;;;;;;;15.80;12.48;;;;;;;23.76;55.92;100194.16;4976947;28;20046;-82
2022/07/24 01:24:57;;;;;;;15.70;13.32;;;;;;;23.85;55.56;100204.78;4968780;28;20383;-86
2022/07/24 01:27:24;;;;;;;16.42;13.07;;;;;;;23.73;56.05;100199.16;4969538;28;20050;-86
2022/07/24 01:29:51;;;;;;;15.85;13.30;;;;;;;23.68;56.12;100207.06;4986666;28;20050;-86
2022/07/24 01:32:18;;;;;;;15.00;13.38;;;;;;;23.67;56.42;100206.25;4931376;28;20054;-85
2022/07/24 01:34:45;;;;;;;17.02;12.88;;;;;;;23.68;56.37;100204.38;4999865;28;20601;-86
2022/07/24 01:37:12;;;;;;;17.83;12.95;;;;;;;23.62;56.42;100204.16;4970278;28;20039;-86
2022/07/24 01:39:38;;;;;;;18.23;13.45;;;;;;;23.63;55.99;100199.56;4962230;28;20426;-86
2022/07/24 01:42:05;;;;;;;18.40;13.75;;;;;;;23.62;56.25;100200.63;4983562;28;20046;-86
2022/07/24 01:44:32;;;;;;;15.15;13.23;;;;;;;23.57;56.14;100206.69;4970490;28;20046;-85
2022/07/24 01:46:59;;;;;;;17.67;13.23;;;;;;;23.47;56.50;100197.31;4999377;28;20050;-86
2022/07/24 01:49:26;;;;;;;16.10;12.90;;;;;;;23.45;56.32;100202.94;4983791;28;20061;-85
2022/07/24 01:51:53;;;;;;;17.30;12.80;;;;;;;23.46;56.21;100201.06;4986503;28;20097;-85
2022/07/24 01:54:20;;;;;;;16.85;12.18;;;;;;;23.40;56.41;100200.03;4987066;28;20050;-86
2022/07/24 01:56:47;;;;;;;16.13;13.05;;;;;;;23.42;56.47;100199.84;4985169;28;20054;-86
2022/07/24 01:59:14;;;;;;;16.40;12.38;;;;;;;23.44;56.30;100203.19;4998973;28;20042;-86
2022/07/24 02:01:40;;;;;;;14.00;11.98;;;;;;;23.38;56.54;100197.56;4974803;28;20066;-86
2022/07/24 02:04:07;;;;;;;19.13;13.27;;;;;;;23.37;56.62;100192.34;4997202;28;20039;-85
2022/07/24 02:06:34;;;;;;;14.73;12.20;;;;;;;23.32;56.70;100201.09;4985682;28;20058;-85
2022/07/24 02:09:01;;;;;;;15.00;12.45;;;;;;;23.32;56.55;100200.25;4988083;28;20042;-86
2022/07/24 02:11:29;;;;;;;17.45;12.95;;;;;;;23.29;56.54;100197.97;4983414;28;20177;-86
2022/07/24 02:13:56;;;;;;;15.07;12.10;;;;;;;23.27;56.40;100200.88;4969236;28;20042;-85
2022/07/24 02:16:23;;;;;;;19.23;12.63;;;;;;;23.25;56.72;100207.56;4982300;28;20054;-86
2022/07/24 02:18:50;;;;;;;14.52;11.70;;;;;;;23.26;56.29;100201.94;4975979;28;20138;-86
2022/07/24 02:21:17;;;;;;;14.13;11.63;;;;;;;23.13;56.94;100193.84;5000157;28;20070;-85
2022/07/24 02:23:44;;;;;;;14.73;12.95;;;;;;;23.15;56.69;100202.56;4961504;28;20050;-86
2022/07/24 02:26:10;;;;;;;16.02;11.98;;;;;;;23.13;56.99;100191.94;4981011;28;20058;-86
2022/07/24 02:28:37;;;;;;;15.73;12.77;;;;;;;23.08;56.88;100191.75;4971617;28;20112;-86
2022/07/24 02:31:04;;;;;;;15.90;11.90;;;;;;;23.06;57.27;100201.94;4969805;28;20407;-86
2022/07/24 02:33:31;;;;;;;16.23;12.25;;;;;;;23.06;57.16;100201.13;4978602;28;20058;-85
2022/07/24 02:35:57;;;;;;;15.32;12.50;;;;;;;23.05;56.95;100196.72;4958850;28;20407;-85
2022/07/24 02:38:30;;;;;;;14.45;12.27;;;;;;;22.94;57.21;100200.88;4947627;28;20542;-85
2022/07/24 02:40:56;;;;;;;15.43;12.13;;;;;;;23.04;57.07;100192.38;4985723;28;20050;-85
2022/07/24 02:43:23;;;;;;;15.15;11.75;;;;;;;23.03;57.09;100199.66;5017576;28;20124;-85
2022/07/24 02:45:50;;;;;;;22.63;13.57;;;;;;;23.02;56.98;100202.56;4966274;28;20133;-85
2022/07/24 02:48:19;;;;;;;16.48;12.25;;;;;;;23.05;57.15;100196.72;4998011;28;20048;-85
2022/07/24 02:50:46;;;;;;;14.57;11.73;;;;;;;23.03;57.11;100196.94;4968634;28;20038;-85
2022/07/24 02:53:13;;;;;;;16.17;11.88;;;;;;;23.05;56.59;100191.31;4955599;28;20053;-85
2022/07/24 02:55:40;;;;;;;17.73;11.50;;;;;;;23.05;57.02;100194.03;4983577;28;20069;-85
2022/07/24 02:58:07;;;;;;;18.50;12.32;;;;;;;22.96;57.25;100196.91;4948197;28;20054;-85
2022/07/24 03:00:33;;;;;;;15.32;12.25;;;;;;;22.96;57.04;100194.19;5000135;28;20042;-85
2022/07/24 03:03:00;;;;;;;12.55;11.23;;;;;;;22.94;57.15;100203.56;4959006;28;20046;-85
2022/07/24 03:05:27;;;;;;;20.25;11.75;;;;;;;22.92;56.95;100200.22;4965338;28;20382;-85
2022/07/24 03:07:54;;;;;;;13.05;10.98;;;;;;;22.88;56.88;100201.72;4982201;28;20061;-85
2022/07/24 03:10:21;;;;;;;13.75;10.85;;;;;;;22.86;56.59;100199.19;4957859;28;20050;-85
2022/07/24 03:12:48;;;;;;;13.27;9.57;;;;;;;22.84;56.49;100203.97;4985370;28;20046;-86
2022/07/24 03:15:15;;;;;;;12.93;9.68;;;;;;;22.76;56.11;100206.91;4977857;28;20073;-86
2022/07/24 03:17:52;;;;;;;13.93;9.77;;;;;;;22.59;56.08;100206.44;4968125;28;20142;-86
2022/07/24 03:20:21;;;;;;;14.20;10.43;;;;;;;22.69;56.38;100196.03;4969620;28;20149;-84
2022/07/24 03:22:48;;;;;;;13.45;10.75;;;;;;;22.65;56.29;100200.22;4966987;28;20050;-84
2022/07/24 03:25:15;;;;;;;13.73;10.90;;;;;;;22.63;56.58;100204.16;4952715;28;20059;-84
2022/07/24 03:27:42;;;;;;;12.02;10.63;;;;;;;22.62;56.46;100211.47;4949594;28;20047;-84
2022/07/24 03:30:10;;;;;;;15.38;10.80;;;;;;;22.60;56.85;100204.59;4932142;28;20159;-84
2022/07/24 03:32:36;;;;;;;14.02;10.77;;;;;;;22.60;56.80;100201.88;4950401;28;20043;-84
2022/07/24 03:35:04;;;;;;;15.18;11.55;;;;;;;22.64;56.75;100206.66;4932457;28;20089;-84
2022/07/24 03:37:30;;;;;;;13.40;11.73;;;;;;;22.64;57.11;100205.81;4948957;28;20129;-84
2022/07/24 03:39:57;;;;;;;17.05;11.80;;;;;;;22.57;57.24;100204.97;4960822;28;20045;-84
2022/07/24 03:42:24;;;;;;;17.67;12.15;;;;;;;22.59;57.54;100203.72;4947615;28;20058;-84
2022/07/24 03:44:51;;;;;;;15.63;11.85;;;;;;;22.53;57.33;100201.84;4950619;28;20388;-84
2022/07/24 03:47:17;;;;;;;15.38;11.90;;;;;;;22.50;57.49;100205.81;4951155;28;20050;-84
2022/07/24 03:49:44;;;;;;;13.82;10.98;;;;;;;22.47;57.47;100200.81;4945621;28;20042;-84
2022/07/24 03:52:11;;;;;;;13.88;11.35;;;;;;;22.44;57.34;100213.91;4940612;28;20057;-84
2022/07/24 03:54:39;;;;;;;14.20;12.02;;;;;;;22.46;57.25;100220.78;4968005;28;20069;-83
2022/07/24 03:57:06;;;;;;;16.42;11.82;;;;;;;22.45;57.46;100215.59;5004038;28;20100;-84
2022/07/24 03:59:33;;;;;;;14.52;10.77;;;;;;;22.47;57.42;100224.34;4998047;28;20046;-85
2022/07/24 04:02:00;;;;;;;12.32;11.02;;;;;;;22.44;57.38;100219.31;4977942;28;20061;-83
2022/07/24 04:04:27;;;;;;;16.58;11.48;;;;;;;22.40;57.66;100223.47;4967863;28;20104;-83
2022/07/24 04:06:54;;;;;;;14.55;11.80;;;;;;;22.37;57.52;100226.59;4982771;28;20049;-83
2022/07/24 04:09:21;;;;;;;13.80;10.52;;;;;;;22.36;57.21;100224.91;4960617;28;20077;-83
2022/07/24 04:11:58;;;;;;;14.60;11.52;;;;;;;22.43;57.11;100223.06;4981712;28;20117;-83
2022/07/24 04:14:25;;;;;;;14.90;11.07;;;;;;;22.43;56.99;100228.47;4978888;28;20055;-83
2022/07/24 04:16:52;;;;;;;14.73;10.93;;;;;;;22.46;56.84;100230.78;4979732;28;20446;-83
2022/07/24 04:19:19;;;;;;;13.35;10.85;;;;;;;22.42;57.20;100238.47;4965230;28;20073;-84
2022/07/24 04:21:45;;;;;;;16.45;10.73;;;;;;;22.41;57.48;100235.97;4969550;28;20116;-84
2022/07/24 04:24:12;;;;;;;14.93;10.82;;;;;;;22.59;57.20;100238.91;4964552;28;20057;-84
2022/07/24 04:26:39;;;;;;;12.25;10.82;;;;;;;22.84;57.52;100241.06;4965032;28;20056;-84
2022/07/24 04:29:06;;;;;;;13.85;10.50;;;;;;;23.12;56.75;100240.91;4951583;28;20069;-84
2022/07/24 04:31:34;;;;;;;12.20;10.63;;;;;;;22.96;56.54;100240.25;4967102;28;20038;-84
2022/07/24 04:34:01;;;;;;;13.82;10.77;;;;;;;22.80;56.89;100237.13;4962002;28;20046;-85
2022/07/24 04:36:27;;;;;;;15.23;11.70;;;;;;;22.93;56.53;100240.66;4983975;28;20081;-84
2022/07/24 04:38:54;;;;;;;13.55;11.52;;;;;;;22.85;56.54;100234.63;4938758;28;20143;-85
2022/07/24 04:41:21;;;;;;;14.48;11.40;;;;;;;22.80;56.34;100231.69;4966897;28;20043;-84
2022/07/24 04:43:49;;;;;;;14.00;11.10;;;;;;;22.76;56.69;100232.09;4969704;28;20165;-85
2022/07/24 04:46:17;;;;;;;14.85;11.27;;;;;;;22.72;57.24;100238.97;4965686;28;20038;-85
2022/07/24 04:48:44;;;;;;;14.02;10.63;;;;;;;22.66;57.54;100238.94;4979181;28;20050;-84
2022/07/24 04:51:11;;;;;;;13.10;11.30;;;;;;;22.68;56.89;100236.88;4961707;28;20050;-84
2022/07/24 04:53:38;;;;;;;14.02;11.02;;;;;;;22.63;56.93;100237.47;4998881;28;20054;-84
2022/07/24 04:56:05;;;;;;;13.18;10.88;;;;;;;22.68;56.45;100234.16;4988035;28;20042;-84
2022/07/24 04:58:32;;;;;;;13.30;11.43;;;;;;;22.66;56.69;100247.06;4980004;28;20455;-84
2022/07/24 05:00:59;;;;;;;13.93;11.30;;;;;;;22.77;56.09;100251.91;4965808;28;20398;-84
2022/07/24 05:03:26;;;;;;;13.52;11.23;;;;;;;22.82;55.96;100240.44;4961370;28;20055;-84
2022/07/24 05:05:52;;;;;;;16.13;11.10;;;;;;;22.84;56.06;100247.31;4966251;28;20038;-84
2022/07/24 05:08:19;;;;;;;18.45;11.07;;;;;;;22.92;56.14;100246.28;4942034;28;20113;-84
2022/07/24 05:10:46;;;;;;;15.88;10.90;;;;;;;23.05;55.99;100248.19;4964410;28;20046;-84
2022/07/24 05:13:13;;;;;;;13.57;10.70;;;;;;;23.05;55.65;100256.31;4995087;28;20502;-84
2022/07/24 05:15:40;;;;;;;16.85;10.57;;;;;;;23.06;56.00;100250.69;4981200;28;20454;-85
2022/07/24 05:18:07;;;;;;;14.32;11.73;;;;;;;23.19;55.63;100250.69;4969093;28;20406;-84
2022/07/24 05:20:33;;;;;;;12.68;11.23;;;;;;;23.18;55.98;100242.81;4996503;28;20042;-84
2022/07/24 05:23:00;;;;;;;14.88;11.68;;;;;;;23.07;55.71;100248.81;4948959;28;20533;-84
2022/07/24 05:25:27;;;;;;;14.85;11.23;;;;;;;23.14;55.62;100242.38;4968993;28;20050;-84
2022/07/24 05:28:18;;;;;;;15.73;11.15;;;;;;;22.88;55.38;100243.16;5003288;28;20046;-84
2022/07/24 05:30:45;;;;;;;13.77;10.27;;;;;;;23.09;55.12;100242.16;4952666;28;20074;-84
2022/07/24 05:33:12;;;;;;;11.52;9.88;;;;;;;23.11;55.35;100248.22;4963460;28;20042;-84
2022/07/24 05:35:44;;;;;;;14.93;10.43;;;;;;;23.12;55.15;100243.63;4972766;28;20046;-84
2022/07/24 05:38:44;;;;;;;13.52;10.90;;;;;;;23.00;55.02;100240.72;4967322;28;20050;-84
2022/07/24 05:41:12;;;;;;;13.80;10.32;;;;;;;23.23;55.23;100243.00;4953284;28;20453;-84
2022/07/24 05:44:34;;;;;;;15.15;10.75;;;;;;;23.10;55.74;100243.84;4949830;28;20512;-84
2022/07/24 05:47:00;;;;;;;12.63;10.73;;;;;;;23.33;55.36;100243.44;4962298;28;20039;-84
2022/07/24 05:49:28;;;;;;;13.75;10.68;;;;;;;23.36;55.10;100245.72;4950472;28;20070;-84
2022/07/24 05:51:54;;;;;;;14.60;10.93;;;;;;;23.29;55.02;100234.03;5001610;28;20548;-85
2022/07/24 05:54:21;;;;;;;15.50;10.52;;;;;;;23.36;55.47;100239.47;4969891;28;20053;-85
2022/07/24 05:56:48;;;;;;;12.40;10.02;;;;;;;23.42;55.18;100235.06;4963524;28;20047;-85
2022/07/24 05:59:17;;;;;;;12.68;10.23;;;;;;;23.48;54.57;100242.34;4999216;28;20512;-85
2022/07/24 06:01:43;;;;;;;14.15;9.93;;;;;;;23.51;54.45;100244.63;4985341;28;20042;-85
2022/07/24 06:04:10;;;;;;;13.07;10.07;;;;;;;23.62;54.78;100241.28;4983414;28;20510;-85
2022/07/24 06:06:37;;;;;;;11.73;10.15;;;;;;;23.62;54.58;100249.44;4981757;28;20195;-85
2022/07/24 06:09:04;;;;;;;10.80;9.55;;;;;;;23.65;52.91;100243.56;4985006;28;20128;-85
2022/07/24 06:11:32;;;;;;;12.90;9.48;;;;;;;23.62;52.75;100242.13;4999843;28;20137;-84
2022/07/24 06:13:59;;;;;;;11.18;8.93;;;;;;;23.78;51.75;100245.47;4964959;28;20049;-85
2022/07/24 06:16:26;;;;;;;11.02;8.85;;;;;;;23.71;51.49;100244.59;4986318;28;20050;-84
2022/07/24 06:18:53;;;;;;;9.85;8.85;;;;;;;23.86;51.48;100244.41;4962678;28;20051;-85
2022/07/24 06:21:21;;;;;;;12.57;9.25;;;;;;;23.81;50.84;100245.88;4949786;28;20047;-85
2022/07/24 06:23:47;;;;;;;9.52;8.52;;;;;;;23.78;50.25;100245.47;4965840;28;20043;-85
2022/07/24 06:26:14;;;;;;;12.48;8.60;;;;;;;23.85;50.10;100238.16;4966848;28;20055;-85
2022/07/24 06:28:41;;;;;;;11.02;9.15;;;;;;;23.89;50.60;100241.25;4949609;28;20050;-85
2022/07/24 06:31:07;;;;;;;10.77;8.23;;;;;;;23.99;50.13;100245.22;4945767;28;20133;-85
2022/07/24 06:33:42;;;;;;;11.60;8.18;;;;;;;24.01;50.20;100242.25;4944217;28;20129;-85
2022/07/24 06:36:09;;;;;;;12.13;8.82;;;;;;;24.04;49.70;100239.97;4966761;28;20469;-85
2022/07/24 06:38:36;;;;;;;13.27;8.75;;;;;;;24.06;49.24;100239.75;4984383;28;20046;-85
2022/07/24 06:41:03;;;;;;;11.95;7.72;;;;;;;23.96;49.36;100242.91;4978118;28;20053;-85
2022/07/24 06:43:29;;;;;;;10.02;8.02;;;;;;;24.07;49.55;100243.28;4982013;28;20070;-85
2022/07/24 06:45:57;;;;;;;9.93;8.07;;;;;;;24.09;49.26;100236.59;4983739;28;20050;-84
2022/07/24 06:48:24;;;;;;;10.05;8.05;;;;;;;24.10;49.12;100235.56;4999558;28;20453;-85
2022/07/24 06:50:51;;;;;;;12.30;9.48;;;;;;;24.17;48.80;100236.38;4981237;28;20061;-85
2022/07/24 06:53:17;;;;;;;11.13;8.60;;;;;;;24.23;49.12;100238.22;5012713;28;20047;-83
2022/07/24 06:55:44;;;;;;;10.18;8.82;;;;;;;24.22;49.38;100239.28;4968802;28;20413;-84
2022/07/24 06:58:11;;;;;;;9.20;8.13;;;;;;;24.26;49.36;100232.34;4979523;28;20046;-84
2022/07/24 07:00:38;;;;;;;10.25;8.43;;;;;;;24.25;49.22;100240.72;4955727;28;20054;-84
2022/07/24 07:03:05;;;;;;;9.73;8.73;;;;;;;24.32;49.61;100241.50;4998649;28;20034;-84
2022/07/24 07:05:32;;;;;;;9.95;8.95;;;;;;;24.38;49.38;100237.13;4968186;28;20049;-85
2022/07/24 07:07:58;;;;;;;11.65;9.20;;;;;;;24.36;48.88;100239.22;4995254;28;20545;-85
2022/07/24 07:10:25;;;;;;;9.68;8.20;;;;;;;24.41;49.27;100234.78;4977457;28;20054;-85
2022/07/24 07:12:52;;;;;;;12.32;9.02;;;;;;;24.44;49.11;100238.94;4972002;28;20591;-85
2022/07/24 07:15:19;;;;;;;11.63;8.93;;;;;;;24.41;49.10;100234.78;4981446;28;20467;-82
2022/07/24 07:17:45;;;;;;;12.18;8.85;;;;;;;24.48;49.63;100237.50;4968656;28;20054;-84
2022/07/24 07:20:12;;;;;;;11.15;9.32;;;;;;;24.55;49.59;100237.47;4983610;28;20383;-82
2022/07/24 07:22:40;;;;;;;13.70;9.50;;;;;;;24.58;49.17;100239.75;5000604;28;20065;-83
2022/07/24 07:25:07;;;;;;;10.98;9.77;;;;;;;24.60;49.17;100241.22;4977866;28;20038;-83
2022/07/24 07:27:35;;;;;;;9.77;8.77;;;;;;;24.64;49.05;100241.59;4967363;28;20050;-83
2022/07/24 07:30:04;;;;;;;13.35;10.85;;;;;;;24.67;49.18;100236.53;4976145;28;20043;-85
2022/07/24 07:32:31;;;;;;;14.77;10.57;;;;;;;24.69;49.41;100236.34;4980969;28;20479;-84
2022/07/24 07:34:58;;;;;;;12.50;10.77;;;;;;;24.74;49.67;100233.81;4965744;28;20533;-84
2022/07/24 07:37:24;;;;;;;17.02;11.48;;;;;;;24.77;49.34;100236.06;4983883;28;20057;-85
2022/07/24 07:39:51;;;;;;;16.00;10.52;;;;;;;24.79;49.44;100219.56;4979588;28;20049;-85
2022/07/24 07:42:18;;;;;;;16.83;10.38;;;;;;;24.85;49.87;100222.22;4989913;28;20156;-84
2022/07/24 07:44:48;;;;;;;14.65;11.88;;;;;;;24.87;49.73;100228.28;4978115;28;20058;-85
2022/07/24 07:47:15;;;;;;;15.27;11.40;;;;;;;24.88;49.79;100229.09;4998952;28;20062;-85
2022/07/24 07:49:42;;;;;;;12.45;11.13;;;;;;;24.87;49.43;100217.41;4982308;28;20664;-85
2022/07/24 07:52:09;;;;;;;17.05;12.20;;;;;;;24.90;49.52;100221.56;4966103;28;20092;-84
2022/07/24 07:54:36;;;;;;;12.30;10.65;;;;;;;24.90;49.81;100222.38;5012271;28;20768;-84
2022/07/24 07:57:02;;;;;;;15.68;10.50;;;;;;;24.88;49.82;100218.22;4976242;28;20048;-84
2022/07/24 07:59:29;;;;;;;15.35;12.05;;;;;;;24.84;49.74;100206.16;4963500;28;20101;-85
2022/07/24 08:01:56;;;;;;;19.80;11.50;;;;;;;24.90;50.49;100213.41;4997245;28;20034;-85
2022/07/24 08:04:52;;;;;;;13.57;11.10;;;;;;;24.87;50.13;100222.84;4982933;28;20090;-85
2022/07/24 08:07:18;;;;;;;14.98;11.07;;;;;;;25.01;50.80;100218.16;4963579;28;20102;-86
2022/07/24 08:09:45;;;;;;;15.52;12.70;;;;;;;25.06;50.59;100214.75;4962536;28;20047;-85
2022/07/24 08:12:12;;;;;;;16.02;12.20;;;;;;;25.11;50.60;100215.78;4970709;28;20053;-85
2022/07/24 08:14:42;;;;;;;14.02;12.07;;;;;;;25.17;50.90;100218.69;4995962;28;20054;-86
2022/07/24 08:17:09;;;;;;;16.85;12.48;;;;;;;25.19;50.91;100216.56;4980188;28;20045;-85
2022/07/24 08:19:35;;;;;;;15.90;13.18;;;;;;;25.20;50.90;100215.50;4981474;28;20049;-85
2022/07/24 08:22:04;;;;;;;16.13;11.50;;;;;;;25.22;50.83;100207.97;4948667;28;20491;-86
2022/07/24 08:24:32;;;;;;;14.32;11.80;;;;;;;25.24;50.61;100209.41;4976854;28;20133;-85
2022/07/24 08:26:59;;;;;;;12.63;11.32;;;;;;;25.28;51.24;100209.78;4981256;28;20046;-85
2022/07/24 08:29:26;;;;;;;18.90;12.82;;;;;;;25.33;50.54;100209.94;4979880;28;20050;-85
2022/07/24 08:31:53;;;;;;;16.77;12.18;;;;;;;25.31;50.91;100199.28;5000705;28;20043;-86
2022/07/24 08:34:21;;;;;;;14.35;11.90;;;;;;;25.31;50.91;100202.00;4980929;28;20121;-85
2022/07/24 08:36:47;;;;;;;14.90;11.70;;;;;;;25.34;51.42;100204.31;4979888;28;20486;-85
2022/07/24 08:39:15;;;;;;;17.67;12.18;;;;;;;25.38;51.11;100212.81;4967494;28;20397;-85
2022/07/24 08:41:46;;;;;;;13.55;11.68;;;;;;;25.43;50.96;100209.44;4976843;28;20047;-86
2022/07/24 08:44:13;;;;;;;15.80;12.43;;;;;;;25.46;50.72;100203.56;4966516;28;20141;-86
2022/07/24 08:46:41;;;;;;;12.75;11.07;;;;;;;25.49;50.90;100213.97;4969329;28;20101;-85
2022/07/24 08:49:14;;;;;;;16.50;12.10;;;;;;;25.50;51.00;100211.03;4980777;28;20049;-85
2022/07/24 08:51:43;;;;;;;14.93;11.73;;;;;;;25.55;50.45;100208.47;4970426;28;20046;-85
2022/07/24 08:54:10;;;;;;;14.48;11.75;;;;;;;25.58;50.70;100212.63;5014776;28;20057;-86
2022/07/24 08:56:42;;;;;;;13.32;11.45;;;;;;;25.58;50.57;100215.34;4983344;28;20046;-86
2022/07/24 08:59:18;;;;;;;15.73;13.35;;;;;;;25.59;50.51;100205.31;4978567;28;20394;-85
2022/07/24 09:01:51;;;;;;;17.92;13.32;;;;;;;25.63;50.94;100210.06;4981015;28;20046;-85
2022/07/24 09:04:37;;;;;;;16.73;13.95;;;;;;;25.58;50.01;100201.75;4964715;28;20558;-86
2022/07/24 09:07:09;;;;;;;17.13;13.73;;;;;;;25.66;50.28;100215.06;4978612;28;20053;-85
2022/07/24 09:09:38;;;;;;;14.82;13.18;;;;;;;25.71;50.73;100211.66;4970042;28;20527;-86
2022/07/24 09:12:09;;;;;;;16.40;13.45;;;;;;;25.71;50.25;100207.03;4983764;28;20053;-86
2022/07/24 09:14:38;;;;;;;15.05;13.10;;;;;;;25.74;50.67;100209.31;5017361;28;20541;-86
2022/07/24 09:17:10;;;;;;;18.75;13.32;;;;;;;25.74;50.30;100206.59;4987060;28;20046;-85
2022/07/24 09:19:58;;;;;;;15.80;13.05;;;;;;;25.75;50.22;100208.28;4959460;28;20260;-85
2022/07/24 09:22:32;;;;;;;15.50;13.75;;;;;;;25.78;49.80;100207.81;4957130;28;20054;-85
2022/07/24 09:25:06;;;;;;;;;;;;;;;25.67;50.20;100197.69;4960461;28;20034;-85
2022/07/24 09:27:34;;;;;;;18.25;14.10;;;;;;;25.86;50.60;100197.72;5030829;28;19937;-85
2022/07/24 09:30:02;;;;;;;17.20;14.07;;;;;;;25.90;50.20;100201.63;4970680;28;20505;-85
2022/07/24 09:32:35;;;;;;;18.00;14.80;;;;;;;25.92;50.24;100192.19;5000170;28;20050;-85
2022/07/24 09:38:50;;;;;;;17.08;12.50;;;;;;;25.95;50.22;100183.59;4954199;28;20481;-85
2022/07/24 09:41:21;;;;;;;18.70;13.50;;;;;;;26.02;50.73;100186.22;4934968;28;20047;-85
2022/07/24 09:44:02;;;;;;;15.35;13.15;;;;;;;26.05;50.41;100177.56;5011152;28;20054;-85
2022/07/24 09:46:46;;;;;;;17.17;13.82;;;;;;;26.15;49.67;100185.19;4947765;28;20081;-84
2022/07/24 09:49:20;;;;;;;19.98;14.02;;;;;;;26.15;50.22;100185.19;4982211;28;20109;-84
2022/07/24 09:52:07;;;;;;;18.20;14.18;;;;;;;26.13;50.10;100182.72;4950950;28;20047;-84
2022/07/24 09:54:46;;;;;;;17.45;14.57;;;;;;;26.20;49.28;100180.75;4993016;28;20050;-84
2022/07/24 09:57:17;;;;;;;17.55;13.52;;;;;;;26.22;49.35;100180.50;4993976;28;20097;-84
2022/07/24 09:59:52;;;;;;;17.85;14.38;;;;;;;26.18;49.38;100173.84;4981847;28;20394;-84
2022/07/24 10:02:29;;;;;;;17.27;14.27;;;;;;;26.20;49.62;100172.59;4953355;28;20051;-84
2022/07/24 10:04:57;;;;;;;20.60;14.82;;;;;;;26.22;49.21;100172.34;5013679;28;20042;-84
2022/07/24 10:07:25;;;;;;;17.30;13.65;;;;;;;26.25;49.69;100173.78;4970068;28;20046;-83
2022/07/24 10:09:54;;;;;;;16.90;13.70;;;;;;;26.26;49.52;100172.72;4967473;28;20046;-84
2022/07/24 10:12:51;;;;;;;18.27;13.07;;;;;;;26.22;49.33;100168.78;4964826;28;20046;-84
2022/07/24 10:15:17;;;;;;;16.13;14.13;;;;;;;26.33;49.62;100174.28;4969629;28;20050;-84
2022/07/24 10:18:16;;;;;;;16.13;12.77;;;;;;;26.31;49.00;100167.41;4969276;28;20566;-84
2022/07/24 10:20:44;;;;;;;17.17;12.98;;;;;;;26.44;48.66;100166.41;4962322;28;20066;-84
2022/07/24 10:23:27;;;;;;;18.35;13.77;;;;;;;26.43;47.24;100160.09;4967980;28;20046;-84
2022/07/24 10:26:02;;;;;;;16.40;13.32;;;;;;;26.51;47.81;100156.22;4939432;28;20054;-83
2022/07/24 10:28:42;;;;;;;15.02;13.43;;;;;;;26.55;47.26;100157.44;4964409;28;20044;-83
2022/07/24 10:31:13;;;;;;;15.70;13.55;;;;;;;26.59;47.34;100155.94;4968903;28;20046;-84
2022/07/24 10:33:51;;;;;;;18.88;14.23;;;;;;;26.59;45.86;100155.94;4977272;28;20043;-84
2022/07/24 10:36:24;;;;;;;17.80;13.30;;;;;;;26.65;46.22;100148.72;4987498;28;20043;-85
2022/07/24 10:39:13;;;;;;;16.70;13.07;;;;;;;26.62;46.33;100147.28;4998099;28;20091;-86
2022/07/24 10:41:40;;;;;;;16.25;13.02;;;;;;;26.70;45.62;100146.94;4940584;28;20069;-87
2022/07/24 10:44:19;;;;;;;16.33;13.02;;;;;;;26.68;45.10;100148.25;4952905;28;20453;-84
2022/07/24 10:47:06;;;;;;;16.08;13.60;;;;;;;26.69;45.79;100149.88;4976619;28;20683;-86
2022/07/24 10:49:56;;;;;;;14.80;13.25;;;;;;;26.62;46.00;100148.13;4949275;28;20050;-87
2022/07/24 10:52:24;;;;;;;14.18;12.38;;;;;;;26.71;45.51;100145.88;4948474;28;20050;-86
2022/07/24 10:55:18;;;;;;;16.88;13.18;;;;;;;26.71;45.08;100145.03;4966667;28;20061;-86
2022/07/24 10:57:59;;;;;;;13.90;11.88;;;;;;;26.79;44.92;100148.28;4970146;28;20490;-86
2022/07/24 11:00:37;;;;;;;15.55;12.13;;;;;;;26.81;44.52;100137.13;4948999;28;20046;-85
2022/07/24 11:03:26;;;;;;;14.90;12.48;;;;;;;26.83;44.26;100132.28;4980774;28;20038;-87
2022/07/24 11:06:09;;;;;;;15.05;12.63;;;;;;;26.89;44.21;100135.94;4988647;28;20043;-86
2022/07/24 11:08:45;;;;;;;;;;;;;;;26.84;44.95;100129.31;4996324;28;20466;-86
2022/07/24 11:11:14;;;;;;;13.23;11.45;;;;;;;26.99;44.70;100130.72;4966734;28;20536;-86
2022/07/24 11:13:44;;;;;;;16.17;11.60;;;;;;;27.01;45.01;100123.97;4952465;28;20050;-85
2022/07/24 11:16:15;;;;;;;14.52;11.65;;;;;;;27.04;44.95;100128.13;4980846;28;20069;-86
2022/07/24 11:18:52;;;;;;;17.88;11.73;;;;;;;27.06;43.98;100126.00;4983323;28;20497;-86
2022/07/24 11:21:37;;;;;;;17.30;13.35;;;;;;;27.08;42.96;100134.78;4982445;28;20100;-85
2022/07/24 11:24:25;;;;;;;17.40;12.70;;;;;;;27.03;42.54;100124.56;4950510;28;20601;-85
2022/07/24 11:26:54;;;;;;;15.10;11.63;;;;;;;27.09;42.94;100125.53;4982525;28;20047;-87